createdAt,value
2017-07-17T00:00:21.384Z,15.2
2017-07-17T00:01:23.435Z,15.1
2017-07-17T00:02:25.487Z,15.1
2017-07-17T00:03:27.543Z,15.1
2017-07-17T00:04:29.610Z,15.1
2017-07-17T00:05:31.662Z,15.1
2017-07-17T00:06:33.722Z,15.1
2017-07-17T00:07:35.778Z,15.1
2017-07-17T00:08:37.834Z,15.1
2017-07-17T00:09:39.894Z,15.1
2017-07-17T00:10:41.953Z,15.1
2017-07-17T00:11:44.371Z,15
2017-07-17T00:12:46.429Z,15
2017-07-17T00:13:48.477Z,15
2017-07-17T00:14:50.535Z,15
2017-07-17T00:15:52.595Z,15
2017-07-17T00:16:54.648Z,15
2017-07-17T00:17:56.705Z,15
2017-07-17T00:18:58.771Z,15
2017-07-17T00:20:00.818Z,14.9
2017-07-17T00:21:02.880Z,14.9
2017-07-17T00:22:04.931Z,14.9
2017-07-17T00:23:06.982Z,14.9
2017-07-17T00:24:09.038Z,14.8
2017-07-17T00:25:11.090Z,14.8
2017-07-17T00:26:13.157Z,14.8
2017-07-17T00:27:15.559Z,14.8
2017-07-17T00:28:17.608Z,14.8
2017-07-17T00:29:19.666Z,14.8
2017-07-17T00:30:21.722Z,14.7
2017-07-17T00:31:23.783Z,14.7
2017-07-17T00:32:25.834Z,14.7
2017-07-17T00:33:27.888Z,14.7
2017-07-17T00:34:30.299Z,14.7
2017-07-17T00:35:32.338Z,14.7
2017-07-17T00:36:34.864Z,14.7
2017-07-17T00:37:36.916Z,14.6
2017-07-17T00:38:38.974Z,14.6
2017-07-17T00:39:41.036Z,14.6
2017-07-17T00:40:43.085Z,14.6
2017-07-17T00:41:45.141Z,14.6
2017-07-17T00:42:47.206Z,14.5
2017-07-17T00:43:49.254Z,14.5
2017-07-17T00:44:51.311Z,14.5
2017-07-17T00:45:53.366Z,14.5
2017-07-17T00:46:55.419Z,14.5
2017-07-17T00:47:57.464Z,14.4
2017-07-17T00:48:59.524Z,14.5
2017-07-17T00:50:01.583Z,14.4
2017-07-17T00:51:03.636Z,14.4
2017-07-17T00:52:05.682Z,14.4
2017-07-17T00:53:07.740Z,14.4
2017-07-17T00:54:09.785Z,14.3
2017-07-17T00:55:11.837Z,14.3
2017-07-17T00:56:13.890Z,14.3
2017-07-17T00:57:15.949Z,14.3
2017-07-17T00:58:18.007Z,14.3
2017-07-17T00:59:20.055Z,14.2
2017-07-17T01:00:22.107Z,14.2
2017-07-17T01:01:24.169Z,14.1
2017-07-17T01:02:26.211Z,14.1
2017-07-17T01:03:28.278Z,14.1
2017-07-17T01:04:30.332Z,14.1
2017-07-17T01:05:32.380Z,14
2017-07-17T01:06:34.433Z,14
2017-07-17T01:07:36.486Z,14
2017-07-17T01:08:38.546Z,14
2017-07-17T01:09:40.598Z,13.9
2017-07-17T01:10:42.639Z,13.9
2017-07-17T01:11:44.704Z,13.9
2017-07-17T01:12:46.764Z,13.8
2017-07-17T01:13:48.818Z,13.8
2017-07-17T01:14:50.871Z,13.8
2017-07-17T01:15:52.922Z,13.8
2017-07-17T01:16:54.971Z,13.8
2017-07-17T01:17:57.039Z,13.8
2017-07-17T01:18:59.093Z,13.7
2017-07-17T01:20:01.146Z,13.7
2017-07-17T01:21:03.543Z,13.7
2017-07-17T01:22:05.593Z,13.6
2017-07-17T01:23:07.645Z,13.6
2017-07-17T01:24:09.692Z,13.6
2017-07-17T01:25:11.755Z,13.6
2017-07-17T01:26:13.814Z,13.6
2017-07-17T01:27:15.859Z,13.6
2017-07-17T01:28:17.915Z,13.6
2017-07-17T01:29:19.971Z,13.5
2017-07-17T01:30:22.023Z,13.5
2017-07-17T01:31:24.078Z,13.4
2017-07-17T01:32:26.137Z,13.4
2017-07-17T01:33:28.197Z,13.4
2017-07-17T01:34:30.249Z,13.3
2017-07-17T01:35:32.304Z,13.4
2017-07-17T01:36:34.489Z,13.3
2017-07-17T01:37:36.908Z,13.3
2017-07-17T01:38:38.960Z,13.2
2017-07-17T01:39:41.012Z,13.2
2017-07-17T01:40:43.067Z,13.2
2017-07-17T01:41:45.119Z,13.2
2017-07-17T01:42:47.164Z,13.2
2017-07-17T01:43:49.230Z,13.2
2017-07-17T01:44:51.277Z,13.2
2017-07-17T01:45:53.326Z,13.2
2017-07-17T01:46:55.376Z,13.2
2017-07-17T01:47:57.430Z,13.1
2017-07-17T01:48:59.477Z,13.1
2017-07-17T01:50:01.544Z,13.1
2017-07-17T01:51:03.577Z,13.1
2017-07-17T01:52:05.632Z,13.1
2017-07-17T01:53:07.685Z,13
2017-07-17T01:54:09.737Z,13
2017-07-17T01:55:11.790Z,13
2017-07-17T01:56:13.845Z,13
2017-07-17T01:57:15.903Z,13
2017-07-17T01:58:18.314Z,13
2017-07-17T01:59:20.359Z,12.9
2017-07-17T02:00:22.418Z,12.9
2017-07-17T02:01:24.473Z,12.9
2017-07-17T02:02:26.531Z,12.9
2017-07-17T02:03:28.586Z,12.9
2017-07-17T02:04:30.638Z,12.9
2017-07-17T02:05:32.699Z,12.9
2017-07-17T02:06:34.747Z,12.9
2017-07-17T02:07:36.802Z,12.8
2017-07-17T02:08:38.859Z,12.8
2017-07-17T02:09:40.909Z,12.8
2017-07-17T02:10:42.966Z,12.8
2017-07-17T02:11:45.017Z,12.8
2017-07-17T02:12:47.076Z,12.7
2017-07-17T02:13:49.120Z,12.7
2017-07-17T02:14:51.173Z,12.7
2017-07-17T02:15:53.231Z,12.7
2017-07-17T02:16:55.280Z,12.6
2017-07-17T02:17:57.330Z,12.6
2017-07-17T02:18:59.387Z,12.6
2017-07-17T02:20:01.779Z,12.6
2017-07-17T02:21:03.835Z,12.6
2017-07-17T02:22:05.891Z,12.6
2017-07-17T02:23:07.944Z,12.6
2017-07-17T02:24:10.006Z,12.5
2017-07-17T02:25:12.058Z,12.5
2017-07-17T02:26:14.112Z,12.5
2017-07-17T02:27:16.169Z,12.5
2017-07-17T02:28:18.214Z,12.4
2017-07-17T02:29:20.265Z,12.4
2017-07-17T02:30:22.316Z,12.4
2017-07-17T02:31:24.355Z,12.4
2017-07-17T02:32:26.418Z,12.4
2017-07-17T02:33:28.467Z,12.4
2017-07-17T02:34:30.527Z,12.4
2017-07-17T02:35:32.589Z,12.3
2017-07-17T02:36:34.743Z,12.3
2017-07-17T02:37:36.818Z,12.3
2017-07-17T02:38:38.864Z,12.3
2017-07-17T02:39:40.921Z,12.2
2017-07-17T02:40:42.980Z,12.3
2017-07-17T02:41:45.028Z,12.3
2017-07-17T02:42:47.077Z,12.3
2017-07-17T02:43:49.126Z,12.2
2017-07-17T02:44:51.182Z,12.2
2017-07-17T02:45:53.240Z,12.2
2017-07-17T02:46:55.290Z,12.1
2017-07-17T02:47:57.345Z,12.1
2017-07-17T02:48:59.399Z,12.1
2017-07-17T02:50:01.443Z,12.1
2017-07-17T02:51:03.492Z,12.1
2017-07-17T02:52:05.545Z,12.1
2017-07-17T02:53:07.603Z,12
2017-07-17T02:54:09.667Z,12
2017-07-17T02:55:11.715Z,12
2017-07-17T02:56:13.769Z,12
2017-07-17T02:57:15.816Z,11.9
2017-07-17T02:58:17.872Z,11.9
2017-07-17T02:59:19.939Z,11.9
2017-07-17T03:00:21.995Z,11.9
2017-07-17T03:01:24.044Z,11.9
2017-07-17T03:02:26.100Z,11.9
2017-07-17T03:03:28.145Z,11.8
2017-07-17T03:04:30.204Z,11.8
2017-07-17T03:05:32.255Z,11.8
2017-07-17T03:06:34.316Z,11.8
2017-07-17T03:07:36.364Z,11.9
2017-07-17T03:08:38.424Z,11.8
2017-07-17T03:09:40.482Z,11.8
2017-07-17T03:10:42.533Z,11.8
2017-07-17T03:11:44.595Z,11.8
2017-07-17T03:12:46.647Z,11.8
2017-07-17T03:13:48.698Z,11.8
2017-07-17T03:14:50.757Z,11.8
2017-07-17T03:15:52.815Z,11.8
2017-07-17T03:16:54.871Z,11.7
2017-07-17T03:17:56.915Z,11.7
2017-07-17T03:18:58.971Z,11.7
2017-07-17T03:20:01.028Z,11.7
2017-07-17T03:21:03.069Z,11.7
2017-07-17T03:22:05.125Z,11.7
2017-07-17T03:23:07.182Z,11.7
2017-07-17T03:24:09.273Z,11.7
2017-07-17T03:25:11.294Z,11.7
2017-07-17T03:26:13.345Z,11.7
2017-07-17T03:27:15.401Z,11.6
2017-07-17T03:28:17.458Z,11.6
2017-07-17T03:29:19.513Z,11.6
2017-07-17T03:30:21.578Z,11.6
2017-07-17T03:31:23.642Z,11.6
2017-07-17T03:32:25.676Z,11.6
2017-07-17T03:33:27.735Z,11.6
2017-07-17T03:34:29.791Z,11.5
2017-07-17T03:35:31.846Z,11.5
2017-07-17T03:36:33.937Z,11.6
2017-07-17T03:37:36.041Z,11.6
2017-07-17T03:38:38.096Z,11.5
2017-07-17T03:39:40.144Z,11.5
2017-07-17T03:40:42.196Z,11.5
2017-07-17T03:41:44.262Z,11.5
2017-07-17T03:42:46.318Z,11.5
2017-07-17T03:43:48.373Z,11.5
2017-07-17T03:44:50.774Z,11.5
2017-07-17T03:45:52.836Z,11.5
2017-07-17T03:46:54.887Z,11.5
2017-07-17T03:47:56.947Z,11.5
2017-07-17T03:48:59.000Z,11.5
2017-07-17T03:50:01.390Z,11.5
2017-07-17T03:51:03.449Z,11.5
2017-07-17T03:52:05.512Z,11.5
2017-07-17T03:53:07.558Z,11.4
2017-07-17T03:54:09.627Z,11.4
2017-07-17T03:55:11.675Z,11.4
2017-07-17T03:56:13.731Z,11.5
2017-07-17T03:57:15.780Z,11.5
2017-07-17T03:58:17.830Z,11.5
2017-07-17T03:59:19.890Z,11.5
2017-07-17T04:00:21.947Z,11.5
2017-07-17T04:01:23.997Z,11.6
2017-07-17T04:02:26.055Z,11.6
2017-07-17T04:03:28.101Z,11.6
2017-07-17T04:04:30.163Z,11.6
2017-07-17T04:05:32.224Z,11.6
2017-07-17T04:06:34.284Z,11.6
2017-07-17T04:07:36.342Z,11.6
2017-07-17T04:08:38.397Z,11.6
2017-07-17T04:09:40.445Z,11.6
2017-07-17T04:10:42.509Z,11.6
2017-07-17T04:11:44.559Z,11.7
2017-07-17T04:12:46.624Z,11.7
2017-07-17T04:13:48.678Z,11.7
2017-07-17T04:14:50.735Z,11.8
2017-07-17T04:15:52.787Z,11.8
2017-07-17T04:16:54.837Z,11.8
2017-07-17T04:17:56.896Z,11.8
2017-07-17T04:18:58.955Z,11.8
2017-07-17T04:20:01.002Z,11.8
2017-07-17T04:21:03.061Z,11.8
2017-07-17T04:22:05.114Z,11.8
2017-07-17T04:23:07.173Z,11.8
2017-07-17T04:24:09.226Z,11.9
2017-07-17T04:25:11.277Z,11.9
2017-07-17T04:26:13.336Z,11.8
2017-07-17T04:27:15.393Z,11.8
2017-07-17T04:28:17.455Z,11.9
2017-07-17T04:29:19.503Z,11.9
2017-07-17T04:30:21.566Z,11.9
2017-07-17T04:31:23.625Z,11.9
2017-07-17T04:32:25.677Z,12
2017-07-17T04:33:27.732Z,11.9
2017-07-17T04:34:29.798Z,12
2017-07-17T04:35:31.849Z,12
2017-07-17T04:36:33.927Z,12
2017-07-17T04:37:35.985Z,12
2017-07-17T04:38:38.043Z,12
2017-07-17T04:39:40.090Z,12.1
2017-07-17T04:40:42.143Z,12.1
2017-07-17T04:41:44.197Z,12.1
2017-07-17T04:42:46.255Z,12.2
2017-07-17T04:43:48.305Z,12.2
2017-07-17T04:44:50.367Z,12.3
2017-07-17T04:45:52.429Z,12.4
2017-07-17T04:46:54.486Z,12.4
2017-07-17T04:47:56.542Z,12.4
2017-07-17T04:48:58.603Z,12.4
2017-07-17T04:50:01.008Z,12.4
2017-07-17T04:51:03.408Z,12.5
2017-07-17T04:52:05.462Z,12.6
2017-07-17T04:53:07.525Z,12.6
2017-07-17T04:54:09.571Z,12.7
2017-07-17T04:55:11.633Z,12.7
2017-07-17T04:56:13.693Z,12.8
2017-07-17T04:57:15.754Z,12.8
2017-07-17T04:58:17.815Z,12.8
2017-07-17T04:59:19.870Z,12.8
2017-07-17T05:00:21.919Z,12.8
2017-07-17T05:01:23.972Z,12.9
2017-07-17T05:02:26.035Z,12.9
2017-07-17T05:03:28.091Z,12.9
2017-07-17T05:04:30.150Z,12.9
2017-07-17T05:05:32.207Z,13
2017-07-17T05:06:34.264Z,13
2017-07-17T05:07:36.316Z,13.1
2017-07-17T05:08:38.711Z,13.2
2017-07-17T05:09:40.778Z,13.2
2017-07-17T05:10:42.835Z,13.3
2017-07-17T05:11:44.893Z,13.3
2017-07-17T05:12:46.953Z,13.3
2017-07-17T05:13:49.007Z,13.4
2017-07-17T05:14:51.079Z,13.4
2017-07-17T05:15:53.126Z,13.4
2017-07-17T05:16:55.184Z,13.4
2017-07-17T05:17:57.252Z,13.4
2017-07-17T05:18:59.296Z,13.4
2017-07-17T05:20:03.680Z,13.4
2017-07-17T05:21:06.148Z,13.5
2017-07-17T05:22:08.205Z,13.5
2017-07-17T05:23:10.261Z,13.6
2017-07-17T05:24:12.353Z,13.6
2017-07-17T05:25:14.433Z,13.6
2017-07-17T05:26:16.489Z,13.6
2017-07-17T05:27:18.544Z,13.6
2017-07-17T05:28:20.635Z,13.6
2017-07-17T05:29:22.691Z,13.7
2017-07-17T05:30:24.750Z,13.7
2017-07-17T05:31:26.807Z,13.7
2017-07-17T05:32:28.866Z,13.7
2017-07-17T05:33:30.929Z,13.8
2017-07-17T05:34:32.981Z,13.8
2017-07-17T05:35:35.045Z,13.8
2017-07-17T05:36:37.171Z,13.8
2017-07-17T05:37:39.238Z,13.8
2017-07-17T05:38:41.295Z,13.9
2017-07-17T05:39:43.360Z,13.9
2017-07-17T05:40:45.412Z,13.9
2017-07-17T05:41:47.467Z,14
2017-07-17T05:42:49.530Z,14
2017-07-17T05:43:51.593Z,14.1
2017-07-17T05:44:53.649Z,14.1
2017-07-17T05:45:55.713Z,14.1
2017-07-17T05:46:57.769Z,14.1
2017-07-17T05:47:59.826Z,14.1
2017-07-17T05:49:01.884Z,14.2
2017-07-17T05:50:03.948Z,14.2
2017-07-17T05:51:06.002Z,14.2
2017-07-17T05:52:08.417Z,14.3
2017-07-17T05:53:10.469Z,14.3
2017-07-17T05:54:12.530Z,14.3
2017-07-17T05:55:14.592Z,14.4
2017-07-17T05:56:16.651Z,14.4
2017-07-17T05:57:18.719Z,14.4
2017-07-17T05:58:20.778Z,14.4
2017-07-17T05:59:22.822Z,14.4
2017-07-17T06:00:24.884Z,14.5
2017-07-17T06:01:26.937Z,14.5
2017-07-17T06:02:28.993Z,14.6
2017-07-17T06:03:31.056Z,14.6
2017-07-17T06:04:33.110Z,14.7
2017-07-17T06:05:35.178Z,14.7
2017-07-17T06:06:37.229Z,14.8
2017-07-17T06:07:39.649Z,14.8
2017-07-17T06:08:41.716Z,14.8
2017-07-17T06:09:43.777Z,14.9
2017-07-17T06:10:45.838Z,14.9
2017-07-17T06:11:47.902Z,14.9
2017-07-17T06:12:49.958Z,15
2017-07-17T06:13:52.023Z,15
2017-07-17T06:14:54.082Z,15
2017-07-17T06:15:56.128Z,15
2017-07-17T06:16:58.190Z,15.1
2017-07-17T06:18:00.253Z,15.2
2017-07-17T06:19:02.309Z,15.2
2017-07-17T06:20:04.368Z,15.2
2017-07-17T06:21:06.431Z,15.2
2017-07-17T06:22:08.494Z,15.2
2017-07-17T06:23:10.551Z,15.3
2017-07-17T06:24:12.600Z,15.3
2017-07-17T06:25:14.674Z,15.3
2017-07-17T06:26:16.727Z,15.4
2017-07-17T06:27:18.784Z,15.5
2017-07-17T06:28:20.845Z,15.5
2017-07-17T06:29:22.905Z,15.6
2017-07-17T06:30:24.960Z,15.6
2017-07-17T06:31:27.018Z,15.6
2017-07-17T06:32:29.081Z,15.6
2017-07-17T06:33:31.143Z,15.7
2017-07-17T06:34:33.203Z,15.7
2017-07-17T06:35:35.264Z,15.7
2017-07-17T06:36:37.382Z,15.8
2017-07-17T06:37:39.444Z,15.8
2017-07-17T06:38:41.505Z,15.9
2017-07-17T06:39:43.556Z,15.9
2017-07-17T06:40:45.625Z,15.9
2017-07-17T06:41:47.680Z,16
2017-07-17T06:42:49.749Z,16
2017-07-17T06:43:52.157Z,16
2017-07-17T06:44:54.212Z,16.1
2017-07-17T06:45:56.281Z,16.1
2017-07-17T06:46:58.331Z,16.2
2017-07-17T06:48:00.393Z,16.3
2017-07-17T06:49:02.816Z,16.3
2017-07-17T06:50:04.870Z,16.3
2017-07-17T06:51:06.926Z,16.3
2017-07-17T06:52:08.985Z,16.3
2017-07-17T06:53:11.039Z,16.3
2017-07-17T06:54:13.102Z,16.3
2017-07-17T06:55:15.160Z,16.4
2017-07-17T06:56:17.215Z,16.5
2017-07-17T06:57:19.275Z,16.5
2017-07-17T06:58:21.347Z,16.5
2017-07-17T06:59:23.415Z,16.5
2017-07-17T07:00:25.468Z,16.6
2017-07-17T07:01:27.529Z,16.6
2017-07-17T07:02:29.592Z,16.6
2017-07-17T07:03:31.659Z,16.7
2017-07-17T07:04:33.723Z,16.6
2017-07-17T07:05:35.790Z,16.6
2017-07-17T07:06:37.853Z,16.6
2017-07-17T07:07:39.903Z,16.6
2017-07-17T07:08:41.966Z,16.7
2017-07-17T07:09:44.029Z,16.8
2017-07-17T07:10:46.094Z,16.7
2017-07-17T07:11:48.160Z,16.8
2017-07-17T07:12:50.223Z,16.7
2017-07-17T07:13:52.280Z,16.7
2017-07-17T07:14:54.340Z,16.7
2017-07-17T07:15:56.402Z,16.7
2017-07-17T07:16:58.458Z,16.7
2017-07-17T07:18:00.522Z,16.7
2017-07-17T07:19:02.586Z,16.8
2017-07-17T07:20:04.641Z,16.9
2017-07-17T07:21:06.706Z,16.9
2017-07-17T07:22:08.774Z,16.9
2017-07-17T07:23:10.837Z,17
2017-07-17T07:24:12.901Z,17
2017-07-17T07:25:14.968Z,17
2017-07-17T07:26:17.025Z,17
2017-07-17T07:27:19.083Z,17
2017-07-17T07:28:21.145Z,17.2
2017-07-17T07:29:23.223Z,17.2
2017-07-17T07:30:25.289Z,17.3
2017-07-17T07:31:27.351Z,17.3
2017-07-17T07:32:29.415Z,17.4
2017-07-17T07:33:31.480Z,17.5
2017-07-17T07:34:33.546Z,17.7
2017-07-17T07:35:35.613Z,17.6
2017-07-17T07:36:37.721Z,17.5
2017-07-17T07:37:39.780Z,17.5
2017-07-17T07:38:41.852Z,17.6
2017-07-17T07:39:43.902Z,17.6
2017-07-17T07:40:45.979Z,17.6
2017-07-17T07:41:48.042Z,17.6
2017-07-17T07:42:50.101Z,17.6
2017-07-17T07:43:52.167Z,17.6
2017-07-17T07:44:54.226Z,17.7
2017-07-17T07:45:56.294Z,17.6
2017-07-17T07:46:58.360Z,17.7
2017-07-17T07:48:00.411Z,17.8
2017-07-17T07:49:02.488Z,18
2017-07-17T07:50:04.558Z,18.1
2017-07-17T07:51:06.616Z,18.1
2017-07-17T07:52:08.679Z,18.1
2017-07-17T07:53:10.746Z,18
2017-07-17T07:54:12.819Z,18
2017-07-17T07:55:14.867Z,17.8
2017-07-17T07:56:16.933Z,17.8
2017-07-17T07:57:18.997Z,17.7
2017-07-17T07:58:21.057Z,17.6
2017-07-17T07:59:23.123Z,17.7
2017-07-17T08:00:25.192Z,17.7
2017-07-17T08:01:27.253Z,17.7
2017-07-17T08:02:29.315Z,17.8
2017-07-17T08:03:31.367Z,17.9
2017-07-17T08:04:33.442Z,18
2017-07-17T08:05:35.503Z,18
2017-07-17T08:06:37.569Z,18.1
2017-07-17T08:07:39.636Z,18.1
2017-07-17T08:08:41.699Z,18
2017-07-17T08:09:43.769Z,17.9
2017-07-17T08:10:45.836Z,17.9
2017-07-17T08:11:47.909Z,17.9
2017-07-17T08:12:49.973Z,17.9
2017-07-17T08:13:52.030Z,17.9
2017-07-17T08:14:54.095Z,18
2017-07-17T08:15:56.164Z,17.9
2017-07-17T08:16:58.230Z,17.9
2017-07-17T08:18:00.300Z,18
2017-07-17T08:19:02.362Z,18
2017-07-17T08:20:04.428Z,18
2017-07-17T08:21:06.484Z,18
2017-07-17T08:22:08.546Z,17.9
2017-07-17T08:23:10.611Z,18
2017-07-17T08:24:13.038Z,18
2017-07-17T08:25:15.104Z,18
2017-07-17T08:26:17.163Z,18
2017-07-17T08:27:19.227Z,18
2017-07-17T08:28:21.289Z,17.9
2017-07-17T08:29:23.358Z,17.8
2017-07-17T08:30:25.423Z,17.8
2017-07-17T08:31:27.492Z,17.8
2017-07-17T08:32:29.556Z,17.8
2017-07-17T08:33:31.616Z,17.7
2017-07-17T08:34:33.686Z,17.7
2017-07-17T08:35:35.755Z,17.9
2017-07-17T08:36:37.896Z,18.3
2017-07-17T08:37:39.959Z,18.5
2017-07-17T08:38:42.025Z,18.6
2017-07-17T08:39:44.095Z,18.6
2017-07-17T08:40:46.153Z,18.6
2017-07-17T08:41:48.220Z,18.5
2017-07-17T08:42:50.293Z,18.5
2017-07-17T08:43:52.354Z,18.4
2017-07-17T08:44:54.414Z,18.4
2017-07-17T08:45:56.470Z,18.3
2017-07-17T08:46:58.550Z,18.2
2017-07-17T08:48:00.617Z,18.1
2017-07-17T08:49:03.025Z,18.1
2017-07-17T08:50:05.090Z,18
2017-07-17T08:51:07.151Z,18.1
2017-07-17T08:52:09.576Z,18
2017-07-17T08:53:11.643Z,18
2017-07-17T08:54:13.696Z,17.9
2017-07-17T08:55:15.771Z,17.8
2017-07-17T08:56:17.829Z,17.8
2017-07-17T08:57:19.894Z,17.9
2017-07-17T08:58:21.955Z,18.2
2017-07-17T08:59:24.025Z,18.4
2017-07-17T09:00:26.446Z,18.7
2017-07-17T09:01:28.508Z,18.9
2017-07-17T09:02:30.568Z,19.2
2017-07-17T09:03:32.643Z,19.5
2017-07-17T09:04:34.698Z,19.5
2017-07-17T09:05:36.768Z,19.8
2017-07-17T09:06:38.839Z,19.8
2017-07-17T09:07:40.904Z,19.5
2017-07-17T09:08:42.960Z,19.3
2017-07-17T09:09:45.029Z,19.1
2017-07-17T09:10:47.099Z,19.4
2017-07-17T09:11:49.161Z,19.8
2017-07-17T09:12:51.221Z,19.9
2017-07-17T09:13:53.292Z,20.3
2017-07-17T09:14:55.356Z,20.3
2017-07-17T09:15:57.417Z,20.4
2017-07-17T09:16:59.482Z,20.4
2017-07-17T09:18:01.561Z,20.6
2017-07-17T09:19:03.627Z,20.8
2017-07-17T09:20:05.697Z,20.8
2017-07-17T09:21:07.768Z,21.1
2017-07-17T09:22:09.836Z,20.9
2017-07-17T09:23:11.909Z,20.4
2017-07-17T09:24:13.971Z,20.3
2017-07-17T09:25:16.038Z,20.1
2017-07-17T09:26:18.112Z,20.3
2017-07-17T09:27:20.558Z,20.4
2017-07-17T09:28:22.626Z,20.5
2017-07-17T09:29:24.690Z,20.8
2017-07-17T09:30:27.105Z,20.9
2017-07-17T09:31:29.185Z,20.9
2017-07-17T09:32:31.236Z,21.1
2017-07-17T09:33:33.299Z,21.3
2017-07-17T09:34:35.372Z,21.3
2017-07-17T09:35:37.431Z,21.3
2017-07-17T09:36:39.526Z,21.4
2017-07-17T09:37:41.597Z,21.4
2017-07-17T09:38:43.668Z,21.6
2017-07-17T09:39:45.741Z,21.6
2017-07-17T09:40:47.810Z,21.5
2017-07-17T09:41:49.877Z,21.6
2017-07-17T09:42:51.956Z,21.6
2017-07-17T09:43:54.014Z,21.4
2017-07-17T09:44:56.091Z,21.4
2017-07-17T09:45:58.157Z,21.1
2017-07-17T09:47:00.222Z,20.9
2017-07-17T09:48:02.292Z,20.7
2017-07-17T09:49:04.353Z,20.5
2017-07-17T09:50:06.430Z,20.4
2017-07-17T09:51:08.504Z,20.3
2017-07-17T09:52:10.563Z,20.2
2017-07-17T09:53:12.633Z,20.3
2017-07-17T09:54:14.703Z,20.4
2017-07-17T09:55:16.779Z,20.4
2017-07-17T09:56:18.848Z,20.6
2017-07-17T09:57:20.921Z,20.8
2017-07-17T09:58:23.006Z,21.1
2017-07-17T09:59:25.071Z,21.3
2017-07-17T10:00:27.141Z,21.3
2017-07-17T10:01:29.207Z,21.6
2017-07-17T10:02:31.278Z,22
2017-07-17T10:03:33.344Z,22
2017-07-17T10:04:35.413Z,21.7
2017-07-17T10:05:37.483Z,21.3
2017-07-17T10:06:39.901Z,20.9
2017-07-17T10:07:41.980Z,20.8
2017-07-17T10:08:44.049Z,20.6
2017-07-17T10:09:46.105Z,20.5
2017-07-17T10:10:48.174Z,20.3
2017-07-17T10:11:50.249Z,20.2
2017-07-17T10:12:52.318Z,20.1
2017-07-17T10:13:54.394Z,20.3
2017-07-17T10:14:56.464Z,20.8
2017-07-17T10:15:58.537Z,21.1
2017-07-17T10:17:00.597Z,21.2
2017-07-17T10:18:02.664Z,21.3
2017-07-17T10:19:04.743Z,21.5
2017-07-17T10:20:06.814Z,21.6
2017-07-17T10:21:08.886Z,21.8
2017-07-17T10:22:10.955Z,21.9
2017-07-17T10:23:13.212Z,22.1
2017-07-17T10:24:15.368Z,22.1
2017-07-17T10:25:17.441Z,21.8
2017-07-17T10:26:19.516Z,21.5
2017-07-17T10:27:21.590Z,21.2
2017-07-17T10:28:23.658Z,21.1
2017-07-17T10:29:25.727Z,21
2017-07-17T10:30:27.803Z,20.8
2017-07-17T10:31:29.876Z,20.8
2017-07-17T10:32:31.950Z,20.6
2017-07-17T10:33:34.027Z,20.5
2017-07-17T10:34:36.103Z,20.5
2017-07-17T10:35:38.180Z,21
2017-07-17T10:36:40.250Z,21.3
2017-07-17T10:37:42.326Z,21.6
2017-07-17T10:38:44.406Z,21.9
2017-07-17T10:39:46.474Z,21.9
2017-07-17T10:40:48.535Z,21.6
2017-07-17T10:41:50.610Z,21.1
2017-07-17T10:42:52.688Z,21
2017-07-17T10:43:54.748Z,20.8
2017-07-17T10:44:56.821Z,20.9
2017-07-17T10:45:58.889Z,20.8
2017-07-17T10:47:00.967Z,20.9
2017-07-17T10:48:03.038Z,21.3
2017-07-17T10:49:05.102Z,21.2
2017-07-17T10:50:07.187Z,21
2017-07-17T10:51:09.253Z,21
2017-07-17T10:52:11.321Z,21.1
2017-07-17T10:53:13.393Z,21.5
2017-07-17T10:54:15.813Z,21.7
2017-07-17T10:55:17.879Z,21.9
2017-07-17T10:56:19.946Z,22.2
2017-07-17T10:57:22.025Z,22.4
2017-07-17T10:58:24.098Z,22.6
2017-07-17T10:59:26.172Z,22.5
2017-07-17T11:00:28.244Z,22.7
2017-07-17T11:01:30.312Z,22.7
2017-07-17T11:02:32.385Z,22.8
2017-07-17T11:03:34.607Z,22.8
2017-07-17T11:04:36.685Z,22.3
2017-07-17T11:05:38.784Z,22.2
2017-07-17T11:06:40.854Z,22
2017-07-17T11:07:42.929Z,22.1
2017-07-17T11:08:45.004Z,22.1
2017-07-17T11:09:47.072Z,22.3
2017-07-17T11:10:49.149Z,22.4
2017-07-17T11:11:51.212Z,22.4
2017-07-17T11:12:53.295Z,22.5
2017-07-17T11:13:55.421Z,22.6
2017-07-17T11:14:57.489Z,22.9
2017-07-17T11:15:59.557Z,22.8
2017-07-17T11:17:01.815Z,22.5
2017-07-17T11:18:04.196Z,22.2
2017-07-17T11:19:06.524Z,22
2017-07-17T11:20:09.188Z,22
2017-07-17T11:21:11.492Z,22
2017-07-17T11:22:13.848Z,21.8
2017-07-17T11:23:16.282Z,21.6
2017-07-17T11:24:18.650Z,21.5
2017-07-17T11:25:21.117Z,21.4
2017-07-17T11:26:23.472Z,21.6
2017-07-17T11:27:25.981Z,22
2017-07-17T11:28:28.487Z,22.5
2017-07-17T11:29:30.873Z,22.8
2017-07-17T11:30:33.421Z,22.7
2017-07-17T11:31:35.883Z,22.3
2017-07-17T11:32:38.438Z,22.3
2017-07-17T11:33:40.950Z,22.4
2017-07-17T11:34:43.406Z,22.6
2017-07-17T11:35:45.908Z,22.9
2017-07-17T11:36:48.283Z,23.1
2017-07-17T11:37:50.880Z,23.4
2017-07-17T11:38:53.378Z,23.3
2017-07-17T11:39:55.843Z,23.4
2017-07-17T11:40:58.257Z,23.3
2017-07-17T11:42:00.662Z,23.4
2017-07-17T11:43:03.218Z,23.6
2017-07-17T11:44:05.572Z,23.6
2017-07-17T11:45:08.319Z,23.5
2017-07-17T11:56:46.489Z,23
2017-07-17T11:58:50.603Z,23.2
2017-07-17T11:59:52.717Z,23.2
2017-07-17T12:00:54.783Z,23.7
2017-07-17T12:01:56.862Z,23.8
2017-07-17T12:02:58.940Z,23.8
2017-07-17T12:04:01.015Z,23.5
2017-07-17T12:06:05.122Z,23.6
2017-07-17T12:07:07.546Z,23.5
2017-07-17T12:08:09.632Z,23.4
2017-07-17T12:09:11.708Z,23.7
2017-07-17T12:10:13.781Z,24
2017-07-17T12:11:15.859Z,23.8
2017-07-17T12:12:17.920Z,23.3
2017-07-17T12:13:20.011Z,23.1
2017-07-17T12:14:22.086Z,23.2
2017-07-17T12:15:24.155Z,23
2017-07-17T12:16:26.229Z,22.6
2017-07-17T12:17:28.299Z,22.4
2017-07-17T12:18:30.732Z,22.4
2017-07-17T12:19:32.811Z,22.8
2017-07-17T12:20:34.873Z,23.2
2017-07-17T12:21:36.951Z,23.4
2017-07-17T12:22:39.027Z,23.6
2017-07-17T12:23:41.097Z,23.7
2017-07-17T12:24:43.169Z,23.6
2017-07-17T12:25:45.245Z,23.1
2017-07-17T12:26:47.331Z,22.7
2017-07-17T12:27:49.393Z,22.6
2017-07-17T12:28:51.464Z,22.5
2017-07-17T12:29:53.538Z,22.6
2017-07-17T12:30:55.954Z,22.7
2017-07-17T12:31:58.032Z,22.7
2017-07-17T12:33:00.110Z,22.7
2017-07-17T12:34:02.189Z,22.8
2017-07-17T12:35:04.264Z,23.3
2017-07-17T12:36:06.329Z,23
2017-07-17T12:37:08.413Z,23.1
2017-07-17T12:38:10.489Z,23.4
2017-07-17T12:39:12.560Z,23.5
2017-07-17T12:40:14.641Z,23.8
2017-07-17T12:41:16.716Z,24
2017-07-17T12:42:18.804Z,24.5
2017-07-17T12:43:20.886Z,24.6
2017-07-17T12:44:22.957Z,24.5
2017-07-17T12:45:25.034Z,24.5
2017-07-17T12:46:27.124Z,24.3
2017-07-17T12:47:29.193Z,24
2017-07-17T12:48:31.267Z,23.8
2017-07-17T12:49:33.337Z,23.7
2017-07-17T12:50:35.420Z,23.4
2017-07-17T12:51:37.509Z,23.4
2017-07-17T12:52:39.914Z,23.3
2017-07-17T12:53:41.999Z,23.1
2017-07-17T12:54:44.071Z,23.1
2017-07-17T12:55:46.141Z,23
2017-07-17T12:56:48.215Z,22.8
2017-07-17T12:57:50.291Z,22.9
2017-07-17T12:58:52.363Z,22.7
2017-07-17T12:59:54.435Z,22.7
2017-07-17T13:00:56.511Z,22.7
2017-07-17T13:01:58.591Z,22.7
2017-07-17T13:03:00.674Z,22.7
2017-07-17T13:04:02.751Z,22.6
2017-07-17T13:05:04.826Z,22.6
2017-07-17T13:06:06.895Z,22.6
2017-07-17T13:07:09.330Z,22.9
2017-07-17T13:08:11.391Z,22.7
2017-07-17T13:09:13.817Z,22.6
2017-07-17T13:10:16.590Z,22.6
2017-07-17T13:11:18.668Z,22.7
2017-07-17T13:12:20.742Z,22.7
2017-07-17T13:13:22.814Z,22.6
2017-07-17T13:14:24.893Z,22.5
2017-07-17T13:15:26.959Z,22.4
2017-07-17T13:16:29.039Z,22.5
2017-07-17T13:17:31.115Z,22.5
2017-07-17T13:18:33.180Z,22.6
2017-07-17T13:19:35.275Z,22.4
2017-07-17T13:20:37.345Z,22.3
2017-07-17T13:21:39.420Z,22.4
2017-07-17T13:22:41.492Z,22.2
2017-07-17T13:23:43.559Z,22.2
2017-07-17T13:24:45.634Z,22.3
2017-07-17T13:25:47.717Z,22.2
2017-07-17T13:26:49.787Z,22.3
2017-07-17T13:27:51.882Z,22.2
2017-07-17T13:28:53.934Z,22.1
2017-07-17T13:29:56.006Z,22.1
2017-07-17T13:30:58.070Z,22
2017-07-17T13:32:00.145Z,22.1
2017-07-17T13:33:02.939Z,22
2017-07-17T13:34:05.014Z,21.9
2017-07-17T13:35:07.082Z,21.9
2017-07-17T13:36:09.170Z,21.7
2017-07-17T13:37:11.227Z,21.6
2017-07-17T13:38:13.306Z,21.4
2017-07-17T13:39:15.385Z,21.4
2017-07-17T13:40:17.460Z,21.5
2017-07-17T13:41:19.521Z,21.4
2017-07-17T13:42:21.594Z,21.2
2017-07-17T13:43:23.668Z,21.3
2017-07-17T13:44:25.735Z,21.3
2017-07-17T13:45:27.815Z,21.3
2017-07-17T13:46:29.886Z,21.3
2017-07-17T13:48:32.085Z,21.3
2017-07-17T13:49:34.160Z,21.3
2017-07-17T13:50:36.237Z,21.3
2017-07-17T13:51:38.306Z,21.3
2017-07-17T13:52:40.371Z,21.3
2017-07-17T13:53:42.818Z,21.2
2017-07-17T13:54:45.296Z,21.2
2017-07-17T13:55:47.398Z,21.2
2017-07-17T13:56:49.496Z,21.1
2017-07-17T13:57:52.284Z,21.3
2017-07-17T13:58:54.748Z,21.3
2017-07-17T13:59:56.875Z,21.3
2017-07-17T14:00:58.990Z,21.2
2017-07-17T14:02:01.473Z,21.1
2017-07-17T14:03:03.920Z,21
2017-07-17T14:04:06.739Z,21
2017-07-17T14:05:09.236Z,21.1
2017-07-17T14:06:11.375Z,21